Aeroporto :
LOGIN :

Iscrizione | Disclaimer

   EN    FR    IT 

 










Sommario :    VFR   VFR Marginale   IFR   IFR Intensivo   IFR Molto Intensivo
Visibilità : 
Base nubi : 
>= 8 km
>= 3000ft
5 / 8 km
1000 / 3000 ft
1500m / 5 km
500 / 1000 ft
800 / 1500m
200 / 500 ft
< 800m
< 200 ft
Simboli :   Temporali  Nebbia  Neve Forte  Precipitazioni Forti  Vento > 20 kt
SIGMETs :   Varie  Temporali  Ghiacco  Turbolenza  Onda orograficha  Ceneri Vulcaniche






- Altitudine del aeroporto : 287 ft


LFRL - Lanveoc Poulmic

ULTIMO METAR :
  • 020630Z AUTO 32009KT 9999 FEW015/// SCT022/// BKN027/// ///TCU 06/04 Q0991

METARs OBSOLETI :
  • 020600Z AUTO 30013KT 9999 -RA FEW025/// BKN040/// BKN052/// //////TCU 06/03 Q0991
  • 020530Z AUTO 29011KT 9999 FEW024/// SCT030/// BKN068/// //////TCU 06/04 Q0991
  • 020500Z AUTO 27010KT 9999 FEW022/// //////TCU 06/03 Q0991
  • 020430Z AUTO 27010KT 9999 FEW026/// SCT048/// BKN088/// ///CB 06/03 Q0990
  • 012100Z AUTO 25018KT 9999 FEW028/// BKN035/// BKN041/// //////CB 08/03 Q0992
  • 020400Z AUTO 26010KT 9999 FEW025/// SCT042/// //////CB 05/03 Q0990
  • 020330Z AUTO 29010KT 9999 FEW023/// SCT034/// BKN040/// //////TCU 05/03 Q0991
  • 020300Z AUTO 24007KT 9999 FEW018/// SCT028/// BKN058/// ///CB 05/03 Q0991
  • 020230Z AUTO 28012KT 9999 SCT019/// BKN026/// BKN034/// //////CB 06/03 Q0991
  • 020200Z AUTO 25010KT 9999 -RA FEW023/// BKN038/// BKN052/// //////CB 06/04 Q0991
  • 020130Z AUTO 27017G29KT 9999 -RA FEW015/// SCT022/// BKN027/// //////TCU 06/04 Q0991

TAF TAF LFRL
Valido dal 01 a 12 ore il 02 a 12 ore UTC


011100Z 0112/0212 26015KT 9999 BKN030
TEMPO 0112/0203 26020G35KT 3500 SHRAGS BKN008 BKN020CB
PROB40
TEMPO 0112/0203 26020G45KT 1500 TSRAGS BKN008 BKN012CB



MetMap, La meteo Aeronautica in un colpo d'occhio ! - Copyright ORBIFLY Dicembre 2007 - Disclaimer

ORBIFLY MET'MAP TEAM :

Programmazione e sviluppo : Alexandra Zaïnal
Concezione : Baudouin d'Aumeries
Supporto tecnico e logistico : Manuel Goepfert
Aiuto : Marc-Olivier Méhu
Aiuto per la traduzione : Arnaldo La Scala




FONTI E CREDITI :

   NOAA